Terminal Aerodrome Forecast
Issued by NWS Pittsburgh, PA

Current Version | Previous Version | Text Only | Print | Product List | Glossary Off
Versions: 1 2 3 4 5 6 7 8 9 10 11 12 13 14 15 16 17 18 19 20 21 22 23 24 25 26 27 28 29 30 31

000
FTUS41 KPBZ 201700
TAFPIT
TAF
KPIT 201722Z 2018/2124 22010KT P6SM SCT045 BKN250
     FM210100 20005KT P6SM BKN250
     FM211200 21006KT P6SM VCSH OVC035
     FM211800 25011KT P6SM BKN045=

USA.gov is the U.S. government's official web portal to all federal, state and local government web resources and services.